createdAt,value
2023-01-05T00:04:51.835Z,9.25
2023-01-05T00:09:53.387Z,9.23
2023-01-05T00:15:27.026Z,9.20
2023-01-05T00:20:47.413Z,9.20
2023-01-05T00:25:48.949Z,9.23
2023-01-05T00:30:50.490Z,9.22
2023-01-05T00:35:52.015Z,9.24
2023-01-05T00:40:55.642Z,9.25
2023-01-05T00:45:57.160Z,9.21
2023-01-05T00:50:58.706Z,9.16
2023-01-05T00:56:00.270Z,9.12
2023-01-05T01:01:01.926Z,9.12
2023-01-05T01:06:04.021Z,9.14
2023-01-05T01:11:07.357Z,9.11
2023-01-05T01:16:10.761Z,9.10
2023-01-05T01:21:12.341Z,9.12
2023-01-05T01:26:14.183Z,9.13
2023-01-05T01:31:15.836Z,9.17
2023-01-05T01:36:17.529Z,9.14
2023-01-05T01:41:19.039Z,9.05
2023-01-05T01:46:22.383Z,9.15
2023-01-05T01:51:30.404Z,9.16
2023-01-05T01:56:51.920Z,9.13
2023-01-05T02:01:57.309Z,9.16
2023-01-05T02:06:59.755Z,9.12
2023-01-05T02:12:16.604Z,9.11
2023-01-05T02:18:06.053Z,9.09
2023-01-05T02:23:08.578Z,9.16
2023-01-05T02:28:54.237Z,9.17
2023-01-05T02:34:21.375Z,9.17
2023-01-05T02:39:29.371Z,9.13
2023-01-05T02:44:32.909Z,9.20
2023-01-05T02:49:41.007Z,9.18
2023-01-05T02:54:52.352Z,9.14
2023-01-05T02:59:54.660Z,9.14
2023-01-05T03:05:10.096Z,9.10
2023-01-05T03:10:32.752Z,9.11
2023-01-05T03:15:37.803Z,9.10
2023-01-05T03:20:43.285Z,9.08
2023-01-05T03:26:04.961Z,9.13
2023-01-05T03:32:05.207Z,9.14
2023-01-05T03:37:10.910Z,9.15
2023-01-05T03:42:13.552Z,9.17
2023-01-05T03:47:15.170Z,9.23
2023-01-05T03:52:16.671Z,9.24
2023-01-05T03:57:18.153Z,9.20
2023-01-05T04:02:20.138Z,9.20
2023-01-05T04:07:21.722Z,9.23
2023-01-05T04:12:23.298Z,9.18
2023-01-05T04:17:24.827Z,9.18
2023-01-05T04:22:27.553Z,9.16
2023-01-05T04:27:29.268Z,9.19
2023-01-05T04:32:30.757Z,9.12
2023-01-05T04:37:32.281Z,9.11
2023-01-05T04:42:33.815Z,9.10
2023-01-05T04:47:35.360Z,9.11
2023-01-05T04:52:36.819Z,9.15
2023-01-05T04:57:38.433Z,9.16
2023-01-05T05:02:40.091Z,9.13
2023-01-05T05:07:41.779Z,9.11
2023-01-05T05:12:43.307Z,9.14
2023-01-05T05:17:44.908Z,9.23
2023-01-05T05:22:46.833Z,9.26
2023-01-05T05:27:48.448Z,8.96
2023-01-05T05:32:49.942Z,8.85
2023-01-05T05:37:56.167Z,8.83
2023-01-05T05:42:58.157Z,8.93
2023-01-05T05:48:01.223Z,9.03
2023-01-05T05:53:02.760Z,9.09
2023-01-05T05:58:04.401Z,9.07
2023-01-05T06:03:06.170Z,9.07
2023-01-05T06:08:07.908Z,9.13
2023-01-05T06:13:09.792Z,9.07
2023-01-05T06:18:11.267Z,9.00
2023-01-05T06:23:12.798Z,9.00
2023-01-05T06:28:19.942Z,8.91
2023-01-05T06:33:21.875Z,8.88
2023-01-05T06:38:23.992Z,8.84
2023-01-05T06:43:25.575Z,8.83
2023-01-05T06:48:27.092Z,8.90
2023-01-05T06:53:28.653Z,8.91
2023-01-05T06:58:30.206Z,8.96
2023-01-05T07:03:31.734Z,9.01
2023-01-05T07:08:33.381Z,8.96
2023-01-05T07:13:34.995Z,8.94
2023-01-05T07:18:36.517Z,8.93
2023-01-05T07:23:38.025Z,8.89
2023-01-05T07:28:39.610Z,8.85
2023-01-05T07:33:41.197Z,8.86
2023-01-05T07:38:42.673Z,8.83
2023-01-05T07:43:44.266Z,8.83
2023-01-05T07:48:45.733Z,8.88
2023-01-05T07:53:47.213Z,8.90
2023-01-05T07:58:48.754Z,8.93
2023-01-05T08:03:50.476Z,8.91
2023-01-05T08:08:52.027Z,8.91
2023-01-05T08:13:59.644Z,8.89
2023-01-05T08:19:01.095Z,8.89
2023-01-05T08:24:02.837Z,8.97
2023-01-05T08:29:04.553Z,9.09
2023-01-05T08:34:06.217Z,9.13
2023-01-05T08:39:10.619Z,9.10
2023-01-05T08:44:14.207Z,9.14
2023-01-05T08:49:15.715Z,9.16
2023-01-05T08:54:17.189Z,9.22
2023-01-05T08:59:18.756Z,9.23
2023-01-05T09:04:20.367Z,9.27
2023-01-05T09:09:24.329Z,9.31
2023-01-05T09:14:25.914Z,9.28
2023-01-05T09:19:27.478Z,9.32
2023-01-05T09:24:29.212Z,9.41
2023-01-05T09:29:30.925Z,9.38
2023-01-05T09:34:32.677Z,9.36
2023-01-05T09:39:34.248Z,9.37
2023-01-05T09:44:40.185Z,9.42
2023-01-05T09:49:42.155Z,9.48
2023-01-05T09:54:43.675Z,9.52
2023-01-05T09:59:51.909Z,9.56
2023-01-05T10:04:54.670Z,9.61
2023-01-05T10:10:00.530Z,9.69
2023-01-05T10:15:18.126Z,9.74
2023-01-05T10:20:54.509Z,9.68
2023-01-05T10:26:13.580Z,9.73
2023-01-05T10:31:24.044Z,9.79
2023-01-05T10:42:08.395Z,9.74
2023-01-05T10:47:11.693Z,9.72
2023-01-05T10:52:19.285Z,9.84
2023-01-05T10:57:35.376Z,9.92
2023-01-05T11:02:41.681Z,9.95
2023-01-05T11:07:49.677Z,9.94
2023-01-05T11:13:02.210Z,9.89
2023-01-05T11:18:03.842Z,9.93
2023-01-05T11:23:05.658Z,9.93
2023-01-05T11:28:11.367Z,9.94
2023-01-05T11:33:25.294Z,9.98
2023-01-05T11:38:30.007Z,9.94
2023-01-05T11:43:33.049Z,10.00
2023-01-05T11:48:36.122Z,9.97
2023-01-05T11:53:39.922Z,9.99
2023-01-05T11:58:46.572Z,9.95
2023-01-05T12:04:06.437Z,9.99
2023-01-05T12:09:34.691Z,10.00
2023-01-05T12:15:01.893Z,9.94
2023-01-05T12:20:21.987Z,9.92
2023-01-05T12:25:39.714Z,9.88
2023-01-05T12:36:28.650Z,9.92
2023-01-05T12:41:39.235Z,10.00
2023-01-05T12:46:43.650Z,10.04
2023-01-05T12:52:01.108Z,10.04
2023-01-05T12:57:12.419Z,10.09
2023-01-05T13:02:29.288Z,10.05
2023-01-05T13:08:01.728Z,10.05
2023-01-05T13:13:12.123Z,9.99
2023-01-05T13:18:18.105Z,10.03
2023-01-05T13:23:25.471Z,10.00
2023-01-05T13:28:29.690Z,10.00
2023-01-05T13:34:09.025Z,9.93
2023-01-05T13:39:41.490Z,9.96
2023-01-05T13:44:56.905Z,9.93
2023-01-05T13:50:27.433Z,9.90
2023-01-05T13:55:30.518Z,9.82
2023-01-05T14:00:37.939Z,9.71
2023-01-05T14:05:51.033Z,9.62
2023-01-05T14:11:19.896Z,9.50
2023-01-05T14:16:33.843Z,9.34
2023-01-05T14:21:50.994Z,9.31
2023-01-05T14:27:01.582Z,9.35
2023-01-05T14:32:07.728Z,9.36
2023-01-05T14:37:29.471Z,9.34
2023-01-05T14:42:39.684Z,9.33
2023-01-05T14:47:44.482Z,9.29
2023-01-05T14:53:14.011Z,9.27
2023-01-05T14:58:35.356Z,9.21
2023-01-05T15:03:47.310Z,9.19
2023-01-05T15:09:38.013Z,9.13
2023-01-05T15:14:45.945Z,9.14
2023-01-05T15:20:20.757Z,9.15
2023-01-05T15:26:03.003Z,9.18
2023-01-05T15:31:29.722Z,9.21
2023-01-05T15:36:57.043Z,9.16
2023-01-05T15:42:05.194Z,9.16
2023-01-05T15:47:13.073Z,9.17
2023-01-05T15:52:37.693Z,9.17
2023-01-05T15:57:39.487Z,9.20
2023-01-05T16:02:40.971Z,9.09
2023-01-05T16:07:51.320Z,9.11
2023-01-05T16:12:59.806Z,9.04
2023-01-05T16:18:03.525Z,8.96
2023-01-05T16:23:18.816Z,8.96
2023-01-05T16:28:23.004Z,8.87
2023-01-05T16:33:40.273Z,8.80
2023-01-05T16:38:41.917Z,8.77
2023-01-05T16:44:01.654Z,8.86
2023-01-05T16:49:32.627Z,8.95
2023-01-05T16:54:40.603Z,8.95
2023-01-05T16:59:50.029Z,8.99
2023-01-05T17:04:51.587Z,9.02
2023-01-05T17:09:53.737Z,9.00
2023-01-05T17:15:00.965Z,8.94
2023-01-05T17:20:02.487Z,8.88
2023-01-05T17:25:07.287Z,8.84
2023-01-05T17:30:18.109Z,8.82
2023-01-05T17:35:20.101Z,8.73
2023-01-05T17:40:22.606Z,8.57
2023-01-05T17:45:28.375Z,8.57
2023-01-05T17:55:38.946Z,8.49
2023-01-05T18:05:53.057Z,8.49
2023-01-05T18:10:54.611Z,8.46
2023-01-05T18:21:04.554Z,8.49
2023-01-05T18:26:08.616Z,8.48
2023-01-05T18:31:15.500Z,8.48
2023-01-05T18:36:17.069Z,8.52
2023-01-05T18:41:24.168Z,8.58
2023-01-05T18:46:25.781Z,8.61
2023-01-05T18:51:27.547Z,8.62
2023-01-05T18:56:29.115Z,8.64
2023-01-05T19:01:31.145Z,8.63
2023-01-05T19:06:32.618Z,8.64
2023-01-05T19:11:34.665Z,8.69
2023-01-05T19:16:36.420Z,8.75
2023-01-05T19:21:40.075Z,8.75
2023-01-05T19:26:41.599Z,8.75
2023-01-05T19:31:43.883Z,8.78
2023-01-05T19:36:46.249Z,8.78
2023-01-05T19:41:48.844Z,8.81
2023-01-05T19:46:53.194Z,8.75
2023-01-05T19:51:55.479Z,8.75
2023-01-05T19:56:57.024Z,8.80
2023-01-05T20:02:01.289Z,8.87
2023-01-05T20:07:04.165Z,8.94
2023-01-05T20:12:14.415Z,8.99
2023-01-05T20:17:16.896Z,9.08
2023-01-05T20:22:18.455Z,9.10
2023-01-05T20:27:20.071Z,9.20
2023-01-05T20:32:24.024Z,9.30
2023-01-05T20:37:27.196Z,9.38
2023-01-05T20:42:30.363Z,9.41
2023-01-05T20:47:43.079Z,9.41
2023-01-05T20:52:48.483Z,9.49
2023-01-05T20:57:50.859Z,9.50
2023-01-05T21:02:52.606Z,9.54
2023-01-05T21:07:54.182Z,9.55
2023-01-05T21:12:56.480Z,9.49
2023-01-05T21:18:17.935Z,9.47
2023-01-05T21:23:20.388Z,9.43
2023-01-05T21:28:21.867Z,9.32
2023-01-05T21:33:25.153Z,9.32
2023-01-05T21:38:26.763Z,9.41
2023-01-05T21:43:50.455Z,9.39
2023-01-05T21:48:52.000Z,9.41
2023-01-05T21:54:12.075Z,9.51
2023-01-05T21:59:13.569Z,9.60
2023-01-05T22:04:15.210Z,9.66
2023-01-05T22:09:16.923Z,9.66
2023-01-05T22:14:18.480Z,9.63
2023-01-05T22:19:20.050Z,9.62
2023-01-05T22:24:21.604Z,9.62
2023-01-05T22:29:23.536Z,9.69
2023-01-05T22:34:25.127Z,9.65
2023-01-05T22:39:26.645Z,9.71
2023-01-05T22:44:28.162Z,9.71
2023-01-05T22:49:30.692Z,9.71
2023-01-05T22:54:32.957Z,9.72
2023-01-05T22:59:34.467Z,9.65
2023-01-05T23:04:36.002Z,9.56
2023-01-05T23:09:37.580Z,9.51
2023-01-05T23:14:39.204Z,9.46
2023-01-05T23:19:40.719Z,9.49
2023-01-05T23:24:42.424Z,9.48
2023-01-05T23:29:43.977Z,9.41
2023-01-05T23:34:45.484Z,9.41
2023-01-05T23:39:46.992Z,9.43
2023-01-05T23:44:48.480Z,9.39
2023-01-05T23:49:50.017Z,9.36
2023-01-05T23:54:51.491Z,9.33
2023-01-05T23:59:53.017Z,9.30
